sensor_id;sensor_type;location;lat;lon;timestamp;P1;durP1;ratioP1;P2;durP2;ratioP2
4754;SDS011;2391;47.212;7.542;2023-04-28T00:00:07;2.70;;;1.27;;
4754;SDS011;2391;47.212;7.542;2023-04-28T00:02:35;5.33;;;1.80;;
4754;SDS011;2391;47.212;7.542;2023-04-28T00:05:01;1.80;;;1.70;;
4754;SDS011;2391;47.212;7.542;2023-04-28T00:07:28;3.23;;;1.30;;
4754;SDS011;2391;47.212;7.542;2023-04-28T00:09:54;1.43;;;1.33;;
4754;SDS011;2391;47.212;7.542;2023-04-28T00:12:21;1.40;;;1.30;;
4754;SDS011;2391;47.212;7.542;2023-04-28T00:14:46;7.50;;;1.50;;
4754;SDS011;2391;47.212;7.542;2023-04-28T00:17:12;1.63;;;1.50;;
4754;SDS011;2391;47.212;7.542;2023-04-28T00:19:38;4.13;;;1.73;;
4754;SDS011;2391;47.212;7.542;2023-04-28T00:22:04;2.83;;;1.47;;
4754;SDS011;2391;47.212;7.542;2023-04-28T00:24:30;1.93;;;1.60;;
4754;SDS011;2391;47.212;7.542;2023-04-28T00:27:01;3.10;;;1.80;;
4754;SDS011;2391;47.212;7.542;2023-04-28T00:29:27;1.70;;;1.60;;
4754;SDS011;2391;47.212;7.542;2023-04-28T00:31:54;3.43;;;1.70;;
4754;SDS011;2391;47.212;7.542;2023-04-28T00:34:20;1.93;;;1.40;;
4754;SDS011;2391;47.212;7.542;2023-04-28T00:36:46;2.03;;;1.80;;
4754;SDS011;2391;47.212;7.542;2023-04-28T00:39:12;3.37;;;2.03;;
4754;SDS011;2391;47.212;7.542;2023-04-28T00:41:37;1.57;;;1.47;;
4754;SDS011;2391;47.212;7.542;2023-04-28T00:44:03;2.13;;;1.40;;
4754;SDS011;2391;47.212;7.542;2023-04-28T00:46:31;3.33;;;1.40;;
4754;SDS011;2391;47.212;7.542;2023-04-28T00:48:58;1.77;;;1.67;;
4754;SDS011;2391;47.212;7.542;2023-04-28T00:51:27;2.87;;;2.00;;
4754;SDS011;2391;47.212;7.542;2023-04-28T00:53:55;2.77;;;1.70;;
4754;SDS011;2391;47.212;7.542;2023-04-28T00:56:21;1.87;;;1.57;;
4754;SDS011;2391;47.212;7.542;2023-04-28T00:58:49;3.10;;;1.53;;
4754;SDS011;2391;47.212;7.542;2023-04-28T01:01:17;2.73;;;1.63;;
4754;SDS011;2391;47.212;7.542;2023-04-28T01:03:43;2.13;;;1.53;;
4754;SDS011;2391;47.212;7.542;2023-04-28T01:06:09;1.93;;;1.50;;
4754;SDS011;2391;47.212;7.542;2023-04-28T01:08:39;2.57;;;1.70;;
4754;SDS011;2391;47.212;7.542;2023-04-28T01:11:09;1.43;;;1.33;;
4754;SDS011;2391;47.212;7.542;2023-04-28T01:13:34;3.23;;;1.70;;
4754;SDS011;2391;47.212;7.542;2023-04-28T01:16:00;1.80;;;1.30;;
4754;SDS011;2391;47.212;7.542;2023-04-28T01:18:28;2.53;;;1.47;;
4754;SDS011;2391;47.212;7.542;2023-04-28T01:20:59;1.70;;;1.47;;
4754;SDS011;2391;47.212;7.542;2023-04-28T01:23:25;2.73;;;1.73;;
4754;SDS011;2391;47.212;7.542;2023-04-28T01:25:50;2.80;;;1.70;;
4754;SDS011;2391;47.212;7.542;2023-04-28T01:28:16;2.27;;;1.80;;
4754;SDS011;2391;47.212;7.542;2023-04-28T01:30:42;1.87;;;1.77;;
4754;SDS011;2391;47.212;7.542;2023-04-28T01:33:08;1.73;;;1.57;;
4754;SDS011;2391;47.212;7.542;2023-04-28T01:35:36;2.53;;;1.70;;
4754;SDS011;2391;47.212;7.542;2023-04-28T01:38:02;1.67;;;1.57;;
4754;SDS011;2391;47.212;7.542;2023-04-28T01:40:28;3.73;;;1.50;;
4754;SDS011;2391;47.212;7.542;2023-04-28T01:42:53;3.43;;;1.90;;
4754;SDS011;2391;47.212;7.542;2023-04-28T01:45:19;3.47;;;1.90;;
4754;SDS011;2391;47.212;7.542;2023-04-28T01:47:45;1.53;;;1.43;;
4754;SDS011;2391;47.212;7.542;2023-04-28T01:50:11;1.63;;;1.53;;
4754;SDS011;2391;47.212;7.542;2023-04-28T01:52:37;2.30;;;2.10;;
4754;SDS011;2391;47.212;7.542;2023-04-28T01:55:03;5.93;;;2.10;;
4754;SDS011;2391;47.212;7.542;2023-04-28T01:57:30;2.90;;;2.23;;
4754;SDS011;2391;47.212;7.542;2023-04-28T01:59:56;2.30;;;2.10;;
4754;SDS011;2391;47.212;7.542;2023-04-28T02:02:23;2.37;;;1.90;;
4754;SDS011;2391;47.212;7.542;2023-04-28T02:04:53;2.23;;;2.03;;
4754;SDS011;2391;47.212;7.542;2023-04-28T02:07:18;2.07;;;1.80;;
4754;SDS011;2391;47.212;7.542;2023-04-28T02:09:44;2.13;;;1.57;;
4754;SDS011;2391;47.212;7.542;2023-04-28T02:12:10;1.80;;;1.53;;
4754;SDS011;2391;47.212;7.542;2023-04-28T02:14:36;1.70;;;1.60;;
4754;SDS011;2391;47.212;7.542;2023-04-28T02:17:01;4.90;;;2.00;;
4754;SDS011;2391;47.212;7.542;2023-04-28T02:19:30;7.07;;;1.70;;
4754;SDS011;2391;47.212;7.542;2023-04-28T02:21:56;2.07;;;1.97;;
4754;SDS011;2391;47.212;7.542;2023-04-28T02:24:21;3.23;;;2.13;;
4754;SDS011;2391;47.212;7.542;2023-04-28T02:26:47;2.27;;;1.70;;
4754;SDS011;2391;47.212;7.542;2023-04-28T02:29:13;1.63;;;1.53;;
4754;SDS011;2391;47.212;7.542;2023-04-28T02:31:39;2.30;;;2.10;;
4754;SDS011;2391;47.212;7.542;2023-04-28T02:34:05;2.00;;;1.90;;
4754;SDS011;2391;47.212;7.542;2023-04-28T02:36:31;2.23;;;1.90;;
4754;SDS011;2391;47.212;7.542;2023-04-28T02:38:57;1.70;;;1.57;;
4754;SDS011;2391;47.212;7.542;2023-04-28T02:41:23;2.93;;;2.10;;
4754;SDS011;2391;47.212;7.542;2023-04-28T02:43:48;4.50;;;2.00;;
4754;SDS011;2391;47.212;7.542;2023-04-28T02:46:18;2.47;;;1.93;;
4754;SDS011;2391;47.212;7.542;2023-04-28T02:48:44;2.07;;;1.83;;
4754;SDS011;2391;47.212;7.542;2023-04-28T02:51:09;2.07;;;1.70;;
4754;SDS011;2391;47.212;7.542;2023-04-28T02:53:38;2.20;;;2.10;;
4754;SDS011;2391;47.212;7.542;2023-04-28T02:56:04;2.20;;;2.07;;
4754;SDS011;2391;47.212;7.542;2023-04-28T02:58:30;3.23;;;2.13;;
4754;SDS011;2391;47.212;7.542;2023-04-28T03:00:56;2.90;;;2.00;;
4754;SDS011;2391;47.212;7.542;2023-04-28T03:03:22;2.10;;;2.00;;
4754;SDS011;2391;47.212;7.542;2023-04-28T03:05:48;4.30;;;1.90;;
4754;SDS011;2391;47.212;7.542;2023-04-28T03:08:13;2.23;;;1.90;;
4754;SDS011;2391;47.212;7.542;2023-04-28T03:10:44;2.50;;;2.30;;
4754;SDS011;2391;47.212;7.542;2023-04-28T03:13:07;3.87;;;2.30;;
4754;SDS011;2391;47.212;7.542;2023-04-28T03:15:33;2.67;;;2.50;;
4754;SDS011;2391;47.212;7.542;2023-04-28T03:17:58;4.60;;;2.83;;
4754;SDS011;2391;47.212;7.542;2023-04-28T03:20:24;2.40;;;2.30;;
4754;SDS011;2391;47.212;7.542;2023-04-28T03:22:50;2.43;;;2.27;;
4754;SDS011;2391;47.212;7.542;2023-04-28T03:27:45;3.60;;;2.90;;
4754;SDS011;2391;47.212;7.542;2023-04-28T03:30:11;2.90;;;2.70;;
4754;SDS011;2391;47.212;7.542;2023-04-28T03:32:38;3.30;;;2.80;;
4754;SDS011;2391;47.212;7.542;2023-04-28T03:35:04;3.63;;;3.33;;
4754;SDS011;2391;47.212;7.542;2023-04-28T03:37:31;4.33;;;3.10;;
4754;SDS011;2391;47.212;7.542;2023-04-28T03:39:57;5.80;;;3.80;;
4754;SDS011;2391;47.212;7.542;2023-04-28T03:42:23;4.30;;;2.80;;
4754;SDS011;2391;47.212;7.542;2023-04-28T03:44:53;3.53;;;3.23;;
4754;SDS011;2391;47.212;7.542;2023-04-28T03:47:20;7.30;;;2.80;;
4754;SDS011;2391;47.212;7.542;2023-04-28T03:49:46;3.57;;;2.80;;
4754;SDS011;2391;47.212;7.542;2023-04-28T03:52:12;3.30;;;3.00;;
4754;SDS011;2391;47.212;7.542;2023-04-28T03:54:38;7.67;;;3.00;;
4754;SDS011;2391;47.212;7.542;2023-04-28T03:57:05;4.83;;;3.50;;
4754;SDS011;2391;47.212;7.542;2023-04-28T03:59:32;4.80;;;3.27;;
4754;SDS011;2391;47.212;7.542;2023-04-28T04:01:58;4.23;;;3.20;;
4754;SDS011;2391;47.212;7.542;2023-04-28T04:04:24;5.40;;;3.00;;
4754;SDS011;2391;47.212;7.542;2023-04-28T04:06:50;4.63;;;2.70;;
4754;SDS011;2391;47.212;7.542;2023-04-28T04:09:16;4.57;;;2.83;;
4754;SDS011;2391;47.212;7.542;2023-04-28T04:11:42;10.10;;;3.23;;
4754;SDS011;2391;47.212;7.542;2023-04-28T04:14:14;2.83;;;2.63;;
4754;SDS011;2391;47.212;7.542;2023-04-28T04:16:45;4.10;;;3.60;;
4754;SDS011;2391;47.212;7.542;2023-04-28T04:19:11;2.87;;;2.67;;
4754;SDS011;2391;47.212;7.542;2023-04-28T04:21:37;4.07;;;3.60;;
4754;SDS011;2391;47.212;7.542;2023-04-28T04:24:03;3.03;;;2.83;;
4754;SDS011;2391;47.212;7.542;2023-04-28T04:26:29;4.10;;;3.17;;
4754;SDS011;2391;47.212;7.542;2023-04-28T04:28:55;4.97;;;3.67;;
4754;SDS011;2391;47.212;7.542;2023-04-28T04:31:21;3.53;;;3.03;;
4754;SDS011;2391;47.212;7.542;2023-04-28T04:33:47;4.80;;;3.07;;
4754;SDS011;2391;47.212;7.542;2023-04-28T04:36:13;3.37;;;2.97;;
4754;SDS011;2391;47.212;7.542;2023-04-28T04:38:39;2.93;;;2.63;;
4754;SDS011;2391;47.212;7.542;2023-04-28T04:41:05;8.10;;;3.00;;
4754;SDS011;2391;47.212;7.542;2023-04-28T04:43:31;4.20;;;3.50;;
4754;SDS011;2391;47.212;7.542;2023-04-28T04:45:57;4.23;;;2.70;;
4754;SDS011;2391;47.212;7.542;2023-04-28T04:48:23;6.40;;;2.90;;
4754;SDS011;2391;47.212;7.542;2023-04-28T04:50:50;2.60;;;2.40;;
4754;SDS011;2391;47.212;7.542;2023-04-28T04:53:16;6.40;;;2.57;;
4754;SDS011;2391;47.212;7.542;2023-04-28T04:55:45;2.90;;;2.70;;
4754;SDS011;2391;47.212;7.542;2023-04-28T04:58:11;2.97;;;2.60;;
4754;SDS011;2391;47.212;7.542;2023-04-28T05:00:37;3.03;;;2.80;;
4754;SDS011;2391;47.212;7.542;2023-04-28T05:03:03;3.03;;;2.83;;
4754;SDS011;2391;47.212;7.542;2023-04-28T05:05:31;3.30;;;2.93;;
4754;SDS011;2391;47.212;7.542;2023-04-28T05:07:57;7.27;;;3.17;;
4754;SDS011;2391;47.212;7.542;2023-04-28T05:10:23;2.87;;;1.93;;
4754;SDS011;2391;47.212;7.542;2023-04-28T05:12:49;2.70;;;2.50;;
4754;SDS011;2391;47.212;7.542;2023-04-28T05:15:15;3.43;;;2.17;;
4754;SDS011;2391;47.212;7.542;2023-04-28T05:17:41;4.13;;;2.50;;
4754;SDS011;2391;47.212;7.542;2023-04-28T05:20:07;2.57;;;2.37;;
4754;SDS011;2391;47.212;7.542;2023-04-28T05:22:33;4.00;;;3.03;;
4754;SDS011;2391;47.212;7.542;2023-04-28T05:24:59;3.00;;;2.80;;
4754;SDS011;2391;47.212;7.542;2023-04-28T05:27:25;3.37;;;2.97;;
4754;SDS011;2391;47.212;7.542;2023-04-28T05:29:50;5.90;;;2.47;;
4754;SDS011;2391;47.212;7.542;2023-04-28T05:32:16;2.77;;;2.57;;
4754;SDS011;2391;47.212;7.542;2023-04-28T05:34:42;2.70;;;2.30;;
4754;SDS011;2391;47.212;7.542;2023-04-28T05:37:07;2.83;;;2.57;;
4754;SDS011;2391;47.212;7.542;2023-04-28T05:39:33;3.30;;;3.00;;
4754;SDS011;2391;47.212;7.542;2023-04-28T05:41:59;4.50;;;3.77;;
4754;SDS011;2391;47.212;7.542;2023-04-28T05:44:24;5.20;;;3.90;;
4754;SDS011;2391;47.212;7.542;2023-04-28T05:46:50;3.70;;;3.40;;
4754;SDS011;2391;47.212;7.542;2023-04-28T05:49:16;3.23;;;3.00;;
4754;SDS011;2391;47.212;7.542;2023-04-28T05:51:42;3.83;;;3.33;;
4754;SDS011;2391;47.212;7.542;2023-04-28T05:54:08;3.27;;;3.00;;
4754;SDS011;2391;47.212;7.542;2023-04-28T05:56:34;4.23;;;3.40;;
4754;SDS011;2391;47.212;7.542;2023-04-28T05:59:00;8.97;;;3.50;;
4754;SDS011;2391;47.212;7.542;2023-04-28T06:01:27;3.83;;;3.10;;
4754;SDS011;2391;47.212;7.542;2023-04-28T06:03:53;4.63;;;3.20;;
4754;SDS011;2391;47.212;7.542;2023-04-28T06:06:21;4.73;;;3.50;;
4754;SDS011;2391;47.212;7.542;2023-04-28T06:08:46;3.87;;;3.57;;
4754;SDS011;2391;47.212;7.542;2023-04-28T06:11:12;5.87;;;4.07;;
4754;SDS011;2391;47.212;7.542;2023-04-28T06:13:38;4.73;;;4.00;;
4754;SDS011;2391;47.212;7.542;2023-04-28T06:16:04;4.37;;;3.97;;
4754;SDS011;2391;47.212;7.542;2023-04-28T06:18:30;8.30;;;3.30;;
4754;SDS011;2391;47.212;7.542;2023-04-28T06:20:58;4.07;;;3.50;;
4754;SDS011;2391;47.212;7.542;2023-04-28T06:23:29;4.20;;;3.20;;
4754;SDS011;2391;47.212;7.542;2023-04-28T06:25:55;6.97;;;3.50;;
4754;SDS011;2391;47.212;7.542;2023-04-28T06:28:21;5.17;;;4.03;;
4754;SDS011;2391;47.212;7.542;2023-04-28T06:30:47;6.10;;;4.30;;
4754;SDS011;2391;47.212;7.542;2023-04-28T06:33:12;4.03;;;3.70;;
4754;SDS011;2391;47.212;7.542;2023-04-28T06:35:38;7.20;;;4.10;;
4754;SDS011;2391;47.212;7.542;2023-04-28T06:38:05;8.37;;;4.10;;
4754;SDS011;2391;47.212;7.542;2023-04-28T06:40:32;10.30;;;4.80;;
4754;SDS011;2391;47.212;7.542;2023-04-28T06:42:58;8.10;;;4.43;;
4754;SDS011;2391;47.212;7.542;2023-04-28T06:47:52;5.23;;;4.10;;
4754;SDS011;2391;47.212;7.542;2023-04-28T06:50:21;6.83;;;4.47;;
4754;SDS011;2391;47.212;7.542;2023-04-28T06:52:47;5.07;;;3.77;;
4754;SDS011;2391;47.212;7.542;2023-04-28T06:55:14;8.40;;;4.40;;
4754;SDS011;2391;47.212;7.542;2023-04-28T06:57:41;6.57;;;4.53;;
4754;SDS011;2391;47.212;7.542;2023-04-28T07:00:08;4.30;;;3.90;;
4754;SDS011;2391;47.212;7.542;2023-04-28T07:02:35;4.10;;;3.80;;
4754;SDS011;2391;47.212;7.542;2023-04-28T07:05:01;4.20;;;3.63;;
4754;SDS011;2391;47.212;7.542;2023-04-28T07:07:30;5.30;;;3.57;;
4754;SDS011;2391;47.212;7.542;2023-04-28T07:09:56;4.37;;;3.90;;
4754;SDS011;2391;47.212;7.542;2023-04-28T07:12:23;9.57;;;4.33;;
4754;SDS011;2391;47.212;7.542;2023-04-28T07:14:49;4.47;;;4.07;;
4754;SDS011;2391;47.212;7.542;2023-04-28T07:17:15;9.47;;;5.20;;
4754;SDS011;2391;47.212;7.542;2023-04-28T07:19:41;7.17;;;4.80;;
4754;SDS011;2391;47.212;7.542;2023-04-28T07:22:07;8.00;;;5.33;;
4754;SDS011;2391;47.212;7.542;2023-04-28T07:24:33;7.50;;;5.60;;
4754;SDS011;2391;47.212;7.542;2023-04-28T07:26:59;8.17;;;3.83;;
4754;SDS011;2391;47.212;7.542;2023-04-28T07:29:25;6.87;;;4.17;;
4754;SDS011;2391;47.212;7.542;2023-04-28T07:31:53;8.90;;;5.00;;
4754;SDS011;2391;47.212;7.542;2023-04-28T07:34:19;5.07;;;4.43;;
4754;SDS011;2391;47.212;7.542;2023-04-28T07:36:45;5.90;;;5.00;;
4754;SDS011;2391;47.212;7.542;2023-04-28T07:39:11;6.73;;;4.80;;
4754;SDS011;2391;47.212;7.542;2023-04-28T07:41:37;7.40;;;5.03;;
4754;SDS011;2391;47.212;7.542;2023-04-28T07:44:06;4.93;;;4.40;;
4754;SDS011;2391;47.212;7.542;2023-04-28T07:46:33;6.83;;;4.33;;
4754;SDS011;2391;47.212;7.542;2023-04-28T07:48:59;8.93;;;4.73;;
4754;SDS011;2391;47.212;7.542;2023-04-28T07:51:25;9.37;;;5.17;;
4754;SDS011;2391;47.212;7.542;2023-04-28T07:53:51;9.13;;;5.33;;
4754;SDS011;2391;47.212;7.542;2023-04-28T07:56:17;5.17;;;4.73;;
4754;SDS011;2391;47.212;7.542;2023-04-28T07:58:43;4.37;;;3.97;;
4754;SDS011;2391;47.212;7.542;2023-04-28T08:01:09;7.77;;;4.77;;
4754;SDS011;2391;47.212;7.542;2023-04-28T08:03:36;8.20;;;4.87;;
4754;SDS011;2391;47.212;7.542;2023-04-28T08:06:02;5.60;;;4.10;;
4754;SDS011;2391;47.212;7.542;2023-04-28T08:08:28;5.60;;;3.80;;
4754;SDS011;2391;47.212;7.542;2023-04-28T08:10:55;5.53;;;4.23;;
4754;SDS011;2391;47.212;7.542;2023-04-28T08:13:21;4.53;;;4.00;;
4754;SDS011;2391;47.212;7.542;2023-04-28T08:15:47;5.67;;;4.40;;
4754;SDS011;2391;47.212;7.542;2023-04-28T08:18:14;5.93;;;3.50;;
4754;SDS011;2391;47.212;7.542;2023-04-28T08:20:40;5.87;;;3.60;;
4754;SDS011;2391;47.212;7.542;2023-04-28T08:23:06;4.43;;;3.73;;
4754;SDS011;2391;47.212;7.542;2023-04-28T08:25:33;6.40;;;3.77;;
4754;SDS011;2391;47.212;7.542;2023-04-28T08:27:59;3.30;;;3.00;;
4754;SDS011;2391;47.212;7.542;2023-04-28T08:30:24;5.80;;;3.50;;
4754;SDS011;2391;47.212;7.542;2023-04-28T08:32:50;4.07;;;3.77;;
4754;SDS011;2391;47.212;7.542;2023-04-28T08:35:16;4.37;;;3.50;;
4754;SDS011;2391;47.212;7.542;2023-04-28T08:37:42;3.90;;;3.60;;
4754;SDS011;2391;47.212;7.542;2023-04-28T08:40:08;3.83;;;3.53;;
4754;SDS011;2391;47.212;7.542;2023-04-28T08:42:34;5.83;;;2.83;;
4754;SDS011;2391;47.212;7.542;2023-04-28T08:45:02;5.67;;;3.03;;
4754;SDS011;2391;47.212;7.542;2023-04-28T08:50:06;3.33;;;3.13;;
4754;SDS011;2391;47.212;7.542;2023-04-28T08:52:30;3.73;;;3.07;;
4754;SDS011;2391;47.212;7.542;2023-04-28T08:55:00;4.20;;;3.30;;
4754;SDS011;2391;47.212;7.542;2023-04-28T08:57:29;3.47;;;3.20;;
4754;SDS011;2391;47.212;7.542;2023-04-28T09:00:01;3.80;;;3.50;;
4754;SDS011;2391;47.212;7.542;2023-04-28T09:02:26;5.37;;;3.30;;
4754;SDS011;2391;47.212;7.542;2023-04-28T09:04:52;4.00;;;3.60;;
4754;SDS011;2391;47.212;7.542;2023-04-28T09:07:18;3.70;;;3.37;;
4754;SDS011;2391;47.212;7.542;2023-04-28T09:09:44;3.57;;;3.23;;
4754;SDS011;2391;47.212;7.542;2023-04-28T09:12:10;4.13;;;3.50;;
4754;SDS011;2391;47.212;7.542;2023-04-28T09:14:36;7.00;;;4.30;;
4754;SDS011;2391;47.212;7.542;2023-04-28T09:17:10;6.70;;;4.03;;
4754;SDS011;2391;47.212;7.542;2023-04-28T09:19:37;5.93;;;3.53;;
4754;SDS011;2391;47.212;7.542;2023-04-28T09:22:06;3.93;;;3.37;;
4754;SDS011;2391;47.212;7.542;2023-04-28T09:24:37;8.70;;;4.00;;
4754;SDS011;2391;47.212;7.542;2023-04-28T09:27:02;5.90;;;4.37;;
4754;SDS011;2391;47.212;7.542;2023-04-28T09:29:30;5.67;;;3.97;;
4754;SDS011;2391;47.212;7.542;2023-04-28T09:32:15;4.20;;;3.80;;
4754;SDS011;2391;47.212;7.542;2023-04-28T09:34:43;16.13;;;4.10;;
4754;SDS011;2391;47.212;7.542;2023-04-28T09:37:29;7.27;;;4.50;;
4754;SDS011;2391;47.212;7.542;2023-04-28T09:39:46;10.83;;;3.57;;
4754;SDS011;2391;47.212;7.542;2023-04-28T09:45:05;7.13;;;3.77;;
4754;SDS011;2391;47.212;7.542;2023-04-28T09:47:33;3.87;;;3.57;;
4754;SDS011;2391;47.212;7.542;2023-04-28T09:50:04;3.73;;;3.40;;
4754;SDS011;2391;47.212;7.542;2023-04-28T09:52:33;3.80;;;3.50;;
4754;SDS011;2391;47.212;7.542;2023-04-28T09:55:01;4.63;;;4.03;;
4754;SDS011;2391;47.212;7.542;2023-04-28T09:57:29;4.23;;;3.83;;
4754;SDS011;2391;47.212;7.542;2023-04-28T09:59:57;4.40;;;3.93;;
4754;SDS011;2391;47.212;7.542;2023-04-28T10:02:24;6.50;;;4.30;;
4754;SDS011;2391;47.212;7.542;2023-04-28T10:04:51;5.83;;;4.10;;
4754;SDS011;2391;47.212;7.542;2023-04-28T10:07:17;4.07;;;3.67;;
4754;SDS011;2391;47.212;7.542;2023-04-28T10:09:45;5.20;;;4.03;;
4754;SDS011;2391;47.212;7.542;2023-04-28T10:12:23;4.93;;;3.93;;
4754;SDS011;2391;47.212;7.542;2023-04-28T10:14:46;5.00;;;3.93;;
4754;SDS011;2391;47.212;7.542;2023-04-28T10:17:14;3.57;;;3.27;;
4754;SDS011;2391;47.212;7.542;2023-04-28T10:19:44;5.57;;;3.77;;
4754;SDS011;2391;47.212;7.542;2023-04-28T10:27:52;3.90;;;3.60;;
4754;SDS011;2391;47.212;7.542;2023-04-28T10:30:19;3.40;;;3.13;;
4754;SDS011;2391;47.212;7.542;2023-04-28T10:32:47;5.67;;;3.70;;
4754;SDS011;2391;47.212;7.542;2023-04-28T10:40:43;7.53;;;4.10;;
4754;SDS011;2391;47.212;7.542;2023-04-28T10:43:13;4.03;;;3.40;;
4754;SDS011;2391;47.212;7.542;2023-04-28T10:48:22;4.77;;;4.07;;
4754;SDS011;2391;47.212;7.542;2023-04-28T10:56:18;4.00;;;3.00;;
4754;SDS011;2391;47.212;7.542;2023-04-28T10:58:50;3.20;;;3.00;;
4754;SDS011;2391;47.212;7.542;2023-04-28T11:04:05;4.17;;;3.53;;
4754;SDS011;2391;47.212;7.542;2023-04-28T11:06:37;4.13;;;3.60;;
4754;SDS011;2391;47.212;7.542;2023-04-28T11:14:47;4.80;;;3.23;;
4754;SDS011;2391;47.212;7.542;2023-04-28T11:17:13;7.13;;;4.10;;
4754;SDS011;2391;47.212;7.542;2023-04-28T11:19:41;5.73;;;4.20;;
4754;SDS011;2391;47.212;7.542;2023-04-28T11:22:13;6.53;;;4.10;;
4754;SDS011;2391;47.212;7.542;2023-04-28T11:24:58;3.80;;;3.33;;
4754;SDS011;2391;47.212;7.542;2023-04-28T11:27:22;5.57;;;3.40;;
4754;SDS011;2391;47.212;7.542;2023-04-28T11:29:51;6.13;;;3.50;;
4754;SDS011;2391;47.212;7.542;2023-04-28T11:32:17;4.83;;;3.33;;
4754;SDS011;2391;47.212;7.542;2023-04-28T11:34:50;3.97;;;3.20;;
4754;SDS011;2391;47.212;7.542;2023-04-28T11:37:16;6.23;;;3.43;;
4754;SDS011;2391;47.212;7.542;2023-04-28T11:39:41;3.57;;;3.27;;
4754;SDS011;2391;47.212;7.542;2023-04-28T11:42:08;4.27;;;3.00;;
4754;SDS011;2391;47.212;7.542;2023-04-28T11:44:35;2.73;;;2.63;;
4754;SDS011;2391;47.212;7.542;2023-04-28T11:47:01;2.83;;;2.63;;
4754;SDS011;2391;47.212;7.542;2023-04-28T11:49:29;3.53;;;2.90;;
4754;SDS011;2391;47.212;7.542;2023-04-28T11:52:04;4.17;;;3.43;;
4754;SDS011;2391;47.212;7.542;2023-04-28T11:54:31;4.43;;;3.07;;
4754;SDS011;2391;47.212;7.542;2023-04-28T11:56:58;4.27;;;3.53;;
4754;SDS011;2391;47.212;7.542;2023-04-28T11:59:26;4.37;;;3.47;;
4754;SDS011;2391;47.212;7.542;2023-04-28T12:01:56;4.00;;;2.77;;
4754;SDS011;2391;47.212;7.542;2023-04-28T12:04:28;3.27;;;2.97;;
4754;SDS011;2391;47.212;7.542;2023-04-28T12:10:26;5.63;;;2.13;;
4754;SDS011;2391;47.212;7.542;2023-04-28T12:12:11;5.23;;;1.70;;
4754;SDS011;2391;47.212;7.542;2023-04-28T12:14:58;1.70;;;1.60;;
4754;SDS011;2391;47.212;7.542;2023-04-28T12:17:26;3.80;;;2.43;;
4754;SDS011;2391;47.212;7.542;2023-04-28T12:19:54;2.03;;;1.93;;
4754;SDS011;2391;47.212;7.542;2023-04-28T12:22:21;3.90;;;2.83;;
4754;SDS011;2391;47.212;7.542;2023-04-28T12:25:02;4.03;;;3.50;;
4754;SDS011;2391;47.212;7.542;2023-04-28T12:27:29;6.63;;;3.10;;
4754;SDS011;2391;47.212;7.542;2023-04-28T12:29:56;6.20;;;2.60;;
4754;SDS011;2391;47.212;7.542;2023-04-28T12:32:38;3.40;;;3.10;;
4754;SDS011;2391;47.212;7.542;2023-04-28T12:35:07;3.23;;;2.93;;
4754;SDS011;2391;47.212;7.542;2023-04-28T12:37:33;2.80;;;2.33;;
4754;SDS011;2391;47.212;7.542;2023-04-28T12:39:59;2.37;;;2.17;;
4754;SDS011;2391;47.212;7.542;2023-04-28T12:42:26;3.00;;;2.20;;
4754;SDS011;2391;47.212;7.542;2023-04-28T12:44:53;2.70;;;2.50;;
4754;SDS011;2391;47.212;7.542;2023-04-28T12:47:19;3.83;;;2.60;;
4754;SDS011;2391;47.212;7.542;2023-04-28T12:49:45;2.90;;;2.30;;
4754;SDS011;2391;47.212;7.542;2023-04-28T12:52:12;3.10;;;2.80;;
4754;SDS011;2391;47.212;7.542;2023-04-28T12:54:38;3.07;;;2.77;;
4754;SDS011;2391;47.212;7.542;2023-04-28T12:57:05;3.07;;;2.87;;
4754;SDS011;2391;47.212;7.542;2023-04-28T12:59:31;4.60;;;3.40;;
4754;SDS011;2391;47.212;7.542;2023-04-28T13:01:57;2.93;;;2.67;;
4754;SDS011;2391;47.212;7.542;2023-04-28T13:04:23;4.43;;;3.00;;
4754;SDS011;2391;47.212;7.542;2023-04-28T13:06:51;3.17;;;2.97;;
4754;SDS011;2391;47.212;7.542;2023-04-28T13:09:17;6.10;;;2.40;;
4754;SDS011;2391;47.212;7.542;2023-04-28T13:11:43;5.40;;;3.53;;
4754;SDS011;2391;47.212;7.542;2023-04-28T13:14:08;2.80;;;2.60;;
4754;SDS011;2391;47.212;7.542;2023-04-28T13:16:34;4.30;;;2.20;;
4754;SDS011;2391;47.212;7.542;2023-04-28T13:19:00;2.17;;;2.00;;
4754;SDS011;2391;47.212;7.542;2023-04-28T13:21:28;2.10;;;1.80;;
4754;SDS011;2391;47.212;7.542;2023-04-28T13:23:54;4.43;;;2.20;;
4754;SDS011;2391;47.212;7.542;2023-04-28T13:26:21;7.80;;;2.00;;
4754;SDS011;2391;47.212;7.542;2023-04-28T13:28:51;2.50;;;1.93;;
4754;SDS011;2391;47.212;7.542;2023-04-28T13:31:17;2.13;;;1.93;;
4754;SDS011;2391;47.212;7.542;2023-04-28T13:33:43;2.60;;;1.80;;
4754;SDS011;2391;47.212;7.542;2023-04-28T13:36:09;2.13;;;1.90;;
4754;SDS011;2391;47.212;7.542;2023-04-28T13:38:35;1.97;;;1.87;;
4754;SDS011;2391;47.212;7.542;2023-04-28T13:41:01;4.80;;;2.30;;
4754;SDS011;2391;47.212;7.542;2023-04-28T13:43:28;3.63;;;2.10;;
4754;SDS011;2391;47.212;7.542;2023-04-28T13:45:55;3.30;;;2.17;;
4754;SDS011;2391;47.212;7.542;2023-04-28T13:48:21;3.00;;;2.20;;
4754;SDS011;2391;47.212;7.542;2023-04-28T13:50:47;3.80;;;1.60;;
4754;SDS011;2391;47.212;7.542;2023-04-28T13:53:12;2.57;;;1.87;;
4754;SDS011;2391;47.212;7.542;2023-04-28T13:55:38;1.97;;;1.77;;
4754;SDS011;2391;47.212;7.542;2023-04-28T13:58:04;2.67;;;2.47;;
4754;SDS011;2391;47.212;7.542;2023-04-28T14:00:31;2.07;;;1.87;;
4754;SDS011;2391;47.212;7.542;2023-04-28T14:02:58;2.80;;;2.40;;
4754;SDS011;2391;47.212;7.542;2023-04-28T14:05:25;5.93;;;2.30;;
4754;SDS011;2391;47.212;7.542;2023-04-28T14:07:52;2.60;;;2.50;;
4754;SDS011;2391;47.212;7.542;2023-04-28T14:10:19;3.67;;;2.20;;
4754;SDS011;2391;47.212;7.542;2023-04-28T14:12:46;2.57;;;2.33;;
4754;SDS011;2391;47.212;7.542;2023-04-28T14:15:13;2.33;;;2.00;;
4754;SDS011;2391;47.212;7.542;2023-04-28T14:17:40;4.07;;;2.13;;
4754;SDS011;2391;47.212;7.542;2023-04-28T14:20:07;2.33;;;2.20;;
4754;SDS011;2391;47.212;7.542;2023-04-28T14:22:34;5.57;;;3.73;;
4754;SDS011;2391;47.212;7.542;2023-04-28T14:25:00;6.20;;;2.37;;
4754;SDS011;2391;47.212;7.542;2023-04-28T14:27:26;2.57;;;2.10;;
4754;SDS011;2391;47.212;7.542;2023-04-28T14:29:53;3.83;;;2.50;;
4754;SDS011;2391;47.212;7.542;2023-04-28T14:32:19;4.27;;;2.30;;
4754;SDS011;2391;47.212;7.542;2023-04-28T14:34:46;2.53;;;2.30;;
4754;SDS011;2391;47.212;7.542;2023-04-28T14:37:14;2.43;;;2.23;;
4754;SDS011;2391;47.212;7.542;2023-04-28T14:39:41;2.80;;;2.57;;
4754;SDS011;2391;47.212;7.542;2023-04-28T14:42:07;2.90;;;2.40;;
4754;SDS011;2391;47.212;7.542;2023-04-28T14:44:33;2.97;;;2.77;;
4754;SDS011;2391;47.212;7.542;2023-04-28T14:46:59;3.97;;;2.70;;
4754;SDS011;2391;47.212;7.542;2023-04-28T14:49:26;5.77;;;3.63;;
4754;SDS011;2391;47.212;7.542;2023-04-28T14:51:53;5.50;;;3.40;;
4754;SDS011;2391;47.212;7.542;2023-04-28T14:54:20;5.10;;;2.90;;
4754;SDS011;2391;47.212;7.542;2023-04-28T14:56:47;3.27;;;2.97;;
4754;SDS011;2391;47.212;7.542;2023-04-28T14:59:14;3.23;;;2.40;;
4754;SDS011;2391;47.212;7.542;2023-04-28T15:01:40;8.70;;;2.20;;
4754;SDS011;2391;47.212;7.542;2023-04-28T15:04:06;2.00;;;1.90;;
4754;SDS011;2391;47.212;7.542;2023-04-28T15:06:34;5.00;;;2.13;;
4754;SDS011;2391;47.212;7.542;2023-04-28T15:09:00;3.13;;;2.33;;
4754;SDS011;2391;47.212;7.542;2023-04-28T15:11:25;3.60;;;2.20;;
4754;SDS011;2391;47.212;7.542;2023-04-28T15:13:51;3.90;;;2.87;;
4754;SDS011;2391;47.212;7.542;2023-04-28T15:16:17;9.30;;;2.90;;
4754;SDS011;2391;47.212;7.542;2023-04-28T15:18:43;10.17;;;4.77;;
4754;SDS011;2391;47.212;7.542;2023-04-28T15:21:10;9.47;;;5.67;;
4754;SDS011;2391;47.212;7.542;2023-04-28T15:23:36;6.33;;;3.90;;
4754;SDS011;2391;47.212;7.542;2023-04-28T15:26:03;8.10;;;3.03;;
4754;SDS011;2391;47.212;7.542;2023-04-28T15:28:29;5.30;;;2.97;;
4754;SDS011;2391;47.212;7.542;2023-04-28T15:30:55;3.90;;;2.50;;
4754;SDS011;2391;47.212;7.542;2023-04-28T15:33:21;3.93;;;2.67;;
4754;SDS011;2391;47.212;7.542;2023-04-28T15:35:48;3.40;;;3.10;;
4754;SDS011;2391;47.212;7.542;2023-04-28T15:38:14;3.33;;;2.37;;
4754;SDS011;2391;47.212;7.542;2023-04-28T15:40:41;4.67;;;2.03;;
4754;SDS011;2391;47.212;7.542;2023-04-28T15:43:08;3.73;;;2.23;;
4754;SDS011;2391;47.212;7.542;2023-04-28T15:45:34;4.00;;;2.57;;
4754;SDS011;2391;47.212;7.542;2023-04-28T15:48:01;2.90;;;2.40;;
4754;SDS011;2391;47.212;7.542;2023-04-28T15:50:29;3.37;;;2.40;;
4754;SDS011;2391;47.212;7.542;2023-04-28T15:52:55;8.13;;;3.43;;